Time;durP1;ratioP1;P1;durP2;ratioP2;P2;SDS_P1;SDS_P2;PMS_P1;PMS_P2;Temp;Humidity;BMP_temperature;BMP_pressure;BME280_temperature;BME280_humidity;BME280_pressure;Samples;Min_cycle;Max_cycle;Signal;HPM_P1;HPM_P2
2022/01/02 00:01:12;;;;;;;48.08;28.45;;;5.00;99.90;;;;;;5015205;28;20032;-80
2022/01/02 00:03:40;;;;;;;45.78;28.13;;;4.80;99.90;;;;;;5033322;28;20021;-80
2022/01/02 00:06:07;;;;;;;46.97;28.20;;;4.60;99.90;;;;;;5033403;28;20365;-80
2022/01/02 00:08:41;;;;;;;48.00;27.55;;;4.40;99.90;;;;;;5033336;28;20025;-80
2022/01/02 00:11:10;;;;;;;46.60;28.48;;;4.30;99.90;;;;;;5033130;28;20021;-80
2022/01/02 00:13:45;;;;;;;44.75;26.60;;;4.10;99.90;;;;;;5033493;28;20029;-80
2022/01/02 00:16:14;;;;;;;50.42;28.17;;;4.10;99.90;;;;;;5033396;28;20368;-80
2022/01/02 00:18:48;;;;;;;45.45;27.42;;;4.00;99.90;;;;;;5033519;28;20471;-81
2022/01/02 00:21:17;;;;;;;48.72;28.38;;;3.90;99.90;;;;;;5033552;28;20049;-80
2022/01/02 00:24:06;;;;;;;54.05;29.27;;;3.90;99.90;;;;;;5033432;28;20486;-80
2022/01/02 00:26:41;;;;;;;50.42;29.55;;;3.70;99.90;;;;;;5015528;28;20049;-80
2022/01/02 00:29:08;;;;;;;52.75;29.83;;;3.70;99.90;;;;;;5015870;28;20549;-81
2022/01/02 00:31:35;;;;;;;48.80;28.63;;;3.70;99.90;;;;;;5033363;28;20033;-81
2022/01/02 00:34:03;;;;;;;51.87;27.53;;;3.70;99.90;;;;;;5033325;28;20036;-81
2022/01/02 00:36:29;;;;;;;42.92;27.35;;;3.60;99.90;;;;;;5033304;28;20471;-81
2022/01/02 00:38:55;;;;;;;51.87;29.77;;;3.50;99.90;;;;;;5015527;28;20036;-80
2022/01/02 00:42:04;;;;;;;49.40;30.83;;;3.50;99.90;;;;;;5033323;28;20052;-80
2022/01/02 00:45:12;;;;;;;49.83;31.53;;;3.50;99.90;;;;;;5002795;28;20030;-81
2022/01/02 00:48:12;;;;;;;53.60;30.80;;;3.40;99.90;;;;;;5015547;28;20091;-80
2022/01/02 00:50:46;;;;;;;53.03;31.23;;;3.50;99.90;;;;;;5032389;28;20488;-81
2022/01/02 00:53:15;;;;;;;47.60;30.10;;;3.50;99.90;;;;;;5033129;28;20540;-80
2022/01/02 00:55:45;;;;;;;48.27;29.37;;;3.50;99.90;;;;;;5032948;28;20030;-81
2022/01/02 00:58:19;;;;;;;51.63;31.90;;;3.40;99.90;;;;;;5032879;28;20026;-80
2022/01/02 01:00:48;;;;;;;43.67;28.43;;;3.40;99.90;;;;;;5033027;28;20026;-81
2022/01/02 01:03:22;;;;;;;46.43;28.93;;;3.30;99.90;;;;;;5032958;28;20485;-81
2022/01/02 01:05:53;;;;;;;46.47;29.70;;;3.20;99.90;;;;;;5015190;28;20029;-81
2022/01/02 01:08:21;;;;;;;47.43;29.90;;;3.20;99.90;;;;;;5032881;28;20140;-81
2022/01/02 01:10:48;;;;;;;52.17;30.87;;;3.10;99.90;;;;;;5032978;28;20045;-81
2022/01/02 01:13:14;;;;;;;55.37;30.93;;;3.00;99.90;;;;;;5015120;28;20030;-81
2022/01/02 01:15:41;;;;;;;59.03;34.83;;;3.10;99.90;;;;;;5032681;28;20459;-81
2022/01/02 01:18:07;;;;;;;53.30;31.93;;;3.10;99.90;;;;;;5032843;28;20599;-81
2022/01/02 01:20:41;;;;;;;49.77;31.87;;;3.10;99.90;;;;;;5015183;28;20032;-81
2022/01/02 01:23:08;;;;;;;57.77;33.83;;;3.10;99.90;;;;;;5032777;28;20021;-81
2022/01/02 01:25:36;;;;;;;55.30;33.17;;;3.10;99.90;;;;;;5032662;28;20388;-80
2022/01/02 01:28:01;;;;;;;51.37;31.50;;;3.10;99.90;;;;;;5014817;28;20446;-80
2022/01/02 01:30:28;;;;;;;55.00;33.50;;;3.10;99.90;;;;;;5014895;28;20018;-80
2022/01/02 01:32:54;;;;;;;48.17;30.30;;;3.10;99.90;;;;;;5032662;28;20029;-81
2022/01/02 01:35:22;;;;;;;55.93;32.67;;;3.10;99.90;;;;;;5032485;28;20021;-80
2022/01/02 01:37:48;;;;;;;49.13;31.60;;;3.10;99.90;;;;;;5032688;28;20033;-80
2022/01/02 01:40:16;;;;;;;46.33;29.10;;;3.10;99.90;;;;;;5032601;28;20152;-81
2022/01/02 01:42:45;;;;;;;46.07;29.33;;;3.00;99.90;;;;;;5032439;28;20053;-81
2022/01/02 01:47:56;;;;;;;49.20;30.20;;;2.90;99.90;;;;;;5032683;28;20022;-80
2022/01/02 01:50:25;;;;;;;49.27;30.70;;;3.00;99.90;;;;;;5032637;28;20101;-81
2022/01/02 01:55:38;;;;;;;47.20;29.77;;;2.80;99.90;;;;;;5032365;28;20079;-81
2022/01/02 01:58:05;;;;;;;47.60;29.70;;;2.80;99.90;;;;;;5014813;28;20021;-81
2022/01/02 02:00:33;;;;;;;51.37;31.00;;;2.90;99.90;;;;;;5014554;28;20025;-81
2022/01/02 02:02:59;;;;;;;50.10;31.43;;;3.00;99.90;;;;;;5016999;28;20059;-81
2022/01/02 02:05:25;;;;;;;45.60;26.93;;;3.00;99.90;;;;;;5036090;28;20479;-80
2022/01/02 02:07:51;;;;;;;42.27;26.67;;;2.90;99.90;;;;;;5035980;28;20031;-80
2022/01/02 02:10:28;;;;;;;39.33;25.43;;;2.90;99.90;;;;;;5036047;28;20025;-80
2022/01/02 02:12:56;;;;;;;41.57;25.97;;;2.90;99.90;;;;;;5036015;28;20468;-81
2022/01/02 02:15:23;;;;;;;42.00;25.27;;;2.80;99.90;;;;;;5035861;28;20083;-81
2022/01/02 02:17:51;;;;;;;42.60;26.53;;;2.80;99.90;;;;;;5018140;28;20026;-79
2022/01/02 02:20:19;;;;;;;39.57;25.67;;;2.80;99.90;;;;;;5035787;28;20021;-81
2022/01/02 02:22:48;;;;;;;45.50;24.03;;;2.90;99.90;;;;;;5035919;28;20476;-80
2022/01/02 02:25:16;;;;;;;38.57;24.70;;;2.90;99.90;;;;;;5018014;28;20026;-81
2022/01/02 02:28:10;;;;;;;33.60;23.43;;;2.90;99.90;;;;;;5035581;28;20076;-80
2022/01/02 02:30:37;;;;;;;39.10;23.97;;;2.90;99.90;;;;;;5031880;28;20048;-80
2022/01/02 02:33:05;;;;;;;39.00;22.23;;;2.90;99.90;;;;;;5017853;28;20026;-80
2022/01/02 02:35:32;;;;;;;31.50;20.53;;;2.90;99.90;;;;;;5017709;28;20071;-81
2022/01/02 02:37:59;;;;;;;31.80;20.33;;;3.00;99.90;;;;;;5035476;28;20021;-80
2022/01/02 02:40:27;;;;;;;29.93;20.10;;;3.10;99.90;;;;;;5035387;28;20095;-80
2022/01/02 02:43:01;;;;;;;27.47;18.43;;;3.00;99.90;;;;;;5035306;28;20029;-81
2022/01/02 02:49:25;;;;;;;25.47;14.33;;;2.90;99.90;;;;;;5035369;28;20049;-81
2022/01/02 02:51:26;;;;;;;16.60;11.47;;;3.00;99.90;;;;;;5021835;28;20037;-80
2022/01/02 02:53:53;;;;;;;17.13;9.63;;;2.90;99.90;;;;;;5034850;28;20479;-81
2022/01/02 02:56:23;;;;;;;10.33;7.77;;;2.90;99.90;;;;;;5035087;28;20036;-81
2022/01/02 02:58:51;;;;;;;8.80;6.77;;;2.90;99.90;;;;;;5035070;28;20022;-80
2022/01/02 03:01:22;;;;;;;7.97;5.93;;;2.80;99.90;;;;;;5035231;28;20057;-80
2022/01/02 03:03:48;;;;;;;5.17;4.30;;;2.90;99.90;;;;;;5034943;28;20017;-81
2022/01/02 03:06:15;;;;;;;4.17;3.77;;;2.90;99.90;;;;;;5035060;28;20109;-81
2022/01/02 03:08:42;;;;;;;3.87;3.47;;;3.00;99.90;;;;;;5035112;28;20672;-81
2022/01/02 03:11:13;;;;;;;4.73;3.00;;;3.00;99.90;;;;;;5034879;28;20164;-79
2022/01/02 03:13:39;;;;;;;3.53;3.13;;;3.10;99.90;;;;;;5034180;28;20045;-81
2022/01/02 03:16:05;;;;;;;3.30;3.00;;;3.10;99.90;;;;;;5016990;28;20026;-81
2022/01/02 03:18:31;;;;;;;2.90;2.70;;;3.20;99.90;;;;;;5016980;28;20029;-81
2022/01/02 03:20:57;;;;;;;3.37;3.07;;;3.20;99.90;;;;;;5016972;28;20441;-81
2022/01/02 03:23:22;;;;;;;3.50;2.70;;;3.30;99.90;;;;;;5016920;28;20032;-81
2022/01/02 03:25:48;;;;;;;4.07;3.23;;;3.30;99.90;;;;;;5034672;28;20071;-81
2022/01/02 03:28:14;;;;;;;3.50;3.13;;;3.40;99.90;;;;;;5034412;28;20634;-79
2022/01/02 03:30:41;;;;;;;3.20;2.90;;;3.40;99.90;;;;;;5034517;28;20491;-81
2022/01/02 03:33:08;;;;;;;4.53;2.60;;;3.30;99.90;;;;;;5016903;28;20049;-80
2022/01/02 03:35:34;;;;;;;3.43;2.73;;;3.30;99.90;;;;;;5034262;28;20033;-81
2022/01/02 03:38:01;;;;;;;3.30;3.00;;;3.30;99.90;;;;;;5034417;28;20026;-80
2022/01/02 03:40:27;;;;;;;3.43;2.70;;;3.30;99.90;;;;;;5034367;28;20479;-81
2022/01/02 03:42:53;;;;;;;3.53;3.07;;;3.40;99.90;;;;;;5034130;28;20025;-79
2022/01/02 03:45:19;;;;;;;5.07;3.43;;;3.40;99.90;;;;;;5034084;28;20409;-80
2022/01/02 03:47:45;;;;;;;3.77;3.10;;;3.40;99.90;;;;;;5034141;28;20041;-80
2022/01/02 03:50:11;;;;;;;5.13;3.57;;;3.30;99.90;;;;;;5034101;28;20033;-81
2022/01/02 03:52:37;;;;;;;3.30;3.00;;;3.20;99.90;;;;;;5016438;28;20033;-81
2022/01/02 03:55:03;;;;;;;4.50;3.57;;;3.10;99.90;;;;;;5016353;28;20036;-80
2022/01/02 03:57:29;;;;;;;5.70;3.83;;;3.00;99.90;;;;;;5016299;28;20435;-80
2022/01/02 03:59:55;;;;;;;5.20;3.80;;;3.00;99.90;;;;;;5033980;28;20104;-81
2022/01/02 04:02:21;;;;;;;4.80;3.37;;;3.00;99.90;;;;;;5033890;28;20021;-81
2022/01/02 04:04:46;;;;;;;3.83;3.27;;;2.90;99.90;;;;;;5033826;28;20490;-80
2022/01/02 04:07:12;;;;;;;5.33;3.60;;;2.90;99.90;;;;;;5033838;28;20041;-81
2022/01/02 04:09:38;;;;;;;4.00;3.40;;;2.90;99.90;;;;;;5033794;28;20025;-81
2022/01/02 04:12:04;;;;;;;5.10;3.27;;;2.80;99.90;;;;;;5033743;28;20033;-81
2022/01/02 04:14:30;;;;;;;4.40;3.67;;;2.80;99.90;;;;;;5015827;28;20034;-81
2022/01/02 04:16:55;;;;;;;4.00;3.47;;;2.80;99.90;;;;;;5015716;28;20036;-80
2022/01/02 04:19:21;;;;;;;3.50;2.97;;;2.90;99.90;;;;;;5033649;28;20087;-81
2022/01/02 04:21:47;;;;;;;3.17;2.63;;;3.10;99.90;;;;;;5033638;28;20029;-81
2022/01/02 04:24:13;;;;;;;4.10;3.60;;;3.30;99.90;;;;;;5015756;28;20017;-80
2022/01/02 04:26:38;;;;;;;3.70;2.87;;;3.30;99.90;;;;;;5032405;28;20479;-81
2022/01/02 04:29:05;;;;;;;3.17;2.90;;;3.30;99.90;;;;;;5033478;28;20036;-80
2022/01/02 04:31:31;;;;;;;3.90;2.43;;;3.40;99.90;;;;;;5033458;28;20026;-81
2022/01/02 04:33:57;;;;;;;3.00;2.53;;;3.60;99.90;;;;;;5015549;28;20026;-80
2022/01/02 04:36:23;;;;;;;5.90;2.30;;;3.70;99.90;;;;;;5033318;28;20037;-81
2022/01/02 04:38:49;;;;;;;2.60;2.33;;;3.90;99.90;;;;;;5033323;28;20036;-79
2022/01/02 04:41:15;;;;;;;2.33;2.13;;;4.00;99.90;;;;;;5033252;28;20022;-81
2022/01/02 04:43:41;;;;;;;3.87;2.50;;;4.10;99.90;;;;;;5033255;28;20061;-80
2022/01/02 04:46:06;;;;;;;2.40;2.20;;;4.30;99.90;;;;;;5033287;28;20029;-80
2022/01/02 04:48:32;;;;;;;2.30;2.10;;;4.40;99.90;;;;;;5033210;28;20030;-80
2022/01/02 04:50:58;;;;;;;2.08;1.98;;;4.50;99.90;;;;;;5015432;28;20593;-80
2022/01/02 04:53:24;;;;;;;2.35;2.15;;;4.50;99.90;;;;;;5033027;28;20029;-80
2022/01/02 04:55:50;;;;;;;2.30;2.08;;;4.60;99.90;;;;;;5015247;28;20422;-80
2022/01/02 04:58:17;;;;;;;1.95;1.85;;;4.70;99.90;;;;;;5015462;28;20567;-80
2022/01/02 05:00:43;;;;;;;2.33;2.13;;;4.80;99.90;;;;;;5015168;28;20048;-80
2022/01/02 05:03:09;;;;;;;1.85;1.75;;;4.90;99.90;;;;;;5032939;28;20034;-80
2022/01/02 05:05:35;;;;;;;2.80;1.92;;;4.90;99.90;;;;;;5032870;28;20124;-80
2022/01/02 05:08:01;;;;;;;2.42;1.70;;;5.00;99.90;;;;;;5032834;28;20086;-80
2022/01/02 05:10:26;;;;;;;1.98;1.88;;;5.10;99.90;;;;;;5015195;28;20365;-80
2022/01/02 05:12:52;;;;;;;1.83;1.70;;;5.20;99.90;;;;;;5032907;28;20033;-80
2022/01/02 05:15:18;;;;;;;1.90;1.80;;;5.20;99.90;;;;;;5032383;28;20048;-80
2022/01/02 05:17:44;;;;;;;1.55;1.40;;;5.40;99.90;;;;;;5031607;28;20029;-80
2022/01/02 05:20:11;;;;;;;2.75;1.88;;;5.40;99.90;;;;;;5032015;28;20037;-80
2022/01/02 05:22:36;;;;;;;3.10;1.80;;;5.40;99.90;;;;;;5032040;28;20554;-80
2022/01/02 05:25:03;;;;;;;1.83;1.73;;;5.40;99.90;;;;;;5031681;28;20148;-80
2022/01/02 05:27:29;;;;;;;2.00;1.88;;;5.40;99.90;;;;;;5031688;28;20050;-80
2022/01/02 05:29:55;;;;;;;1.48;1.38;;;5.40;99.90;;;;;;5031756;28;20034;-80
2022/01/02 05:32:20;;;;;;;2.15;1.95;;;5.40;99.90;;;;;;5032400;28;20169;-81
2022/01/02 05:34:46;;;;;;;2.83;1.80;;;5.50;99.90;;;;;;5032650;28;20033;-80
2022/01/02 05:37:12;;;;;;;4.25;1.67;;;5.50;99.90;;;;;;5016036;28;20080;-80
2022/01/02 05:39:38;;;;;;;1.77;1.60;;;5.50;99.90;;;;;;5036627;28;20033;-80
2022/01/02 05:42:04;;;;;;;1.60;1.50;;;5.60;99.90;;;;;;5036565;28;20435;-81
2022/01/02 05:44:30;;;;;;;2.28;1.60;;;5.60;99.90;;;;;;5018665;28;20476;-80
2022/01/02 05:46:57;;;;;;;2.15;1.70;;;5.60;99.90;;;;;;5036346;28;20032;-81
2022/01/02 05:49:22;;;;;;;1.70;1.60;;;5.60;99.90;;;;;;5018222;28;20445;-80
2022/01/02 05:51:48;;;;;;;1.83;1.60;;;5.60;99.90;;;;;;5036201;28;20057;-81
2022/01/02 05:54:14;;;;;;;2.15;1.65;;;5.70;99.90;;;;;;5036312;28;20071;-81
2022/01/02 05:56:40;;;;;;;1.60;1.50;;;5.70;99.90;;;;;;5018443;28;20065;-80
2022/01/02 05:59:06;;;;;;;1.63;1.48;;;5.70;99.90;;;;;;5036204;28;20020;-81
2022/01/02 06:01:32;;;;;;;1.98;1.70;;;5.80;99.90;;;;;;5018490;28;20439;-81
2022/01/02 06:03:58;;;;;;;2.25;1.73;;;5.70;99.90;;;;;;5036081;28;20077;-80
2022/01/02 06:06:24;;;;;;;2.55;1.65;;;5.70;99.90;;;;;;5036046;28;20040;-81
2022/01/02 06:08:50;;;;;;;2.38;2.17;;;5.70;99.90;;;;;;5036104;28;20056;-81
2022/01/02 06:11:15;;;;;;;2.65;2.45;;;5.60;99.90;;;;;;5035918;28;20048;-81
2022/01/02 06:13:42;;;;;;;2.53;2.20;;;5.40;99.90;;;;;;5034656;28;20037;-81
2022/01/02 06:16:09;;;;;;;3.83;3.20;;;5.20;99.90;;;;;;5035916;28;20112;-80
2022/01/02 06:18:35;;;;;;;3.55;3.15;;;5.10;99.90;;;;;;5035806;28;20029;-81
2022/01/02 06:21:01;;;;;;;4.85;4.15;;;4.90;99.90;;;;;;5035868;28;20025;-81
2022/01/02 06:23:27;;;;;;;6.43;4.60;;;4.80;99.90;;;;;;5034570;28;20104;-81
2022/01/02 06:25:52;;;;;;;5.30;3.72;;;4.70;99.90;;;;;;5035771;28;20061;-80
2022/01/02 06:28:18;;;;;;;4.30;3.90;;;4.60;99.90;;;;;;5034267;28;20053;-81
2022/01/02 06:30:44;;;;;;;4.07;3.63;;;4.50;99.90;;;;;;5034324;28;20036;-81
2022/01/02 06:33:10;;;;;;;3.88;3.58;;;4.40;99.90;;;;;;5034283;28;20029;-81
2022/01/02 06:35:35;;;;;;;5.20;3.42;;;4.30;99.90;;;;;;5035513;28;20029;-81
2022/01/02 06:38:17;;;;;;;4.32;3.78;;;4.30;99.90;;;;;;5033958;28;20032;-81
2022/01/02 06:40:44;;;;;;;6.15;3.97;;;4.10;99.90;;;;;;4998105;28;20022;-81
2022/01/02 06:43:10;;;;;;;6.07;4.00;;;4.10;99.90;;;;;;4998048;28;20435;-81
2022/01/02 06:45:36;;;;;;;3.95;3.55;;;4.00;99.90;;;;;;4997780;28;20037;-81
2022/01/02 06:48:03;;;;;;;4.85;3.70;;;3.80;99.90;;;;;;5015205;28;20029;-81
2022/01/02 06:50:29;;;;;;;5.20;4.15;;;3.70;99.90;;;;;;5014938;28;20024;-81
2022/01/02 06:52:55;;;;;;;10.38;4.40;;;3.70;99.90;;;;;;5015274;28;20022;-79
2022/01/02 06:55:21;;;;;;;6.57;4.50;;;3.60;99.90;;;;;;5015293;28;20022;-80
2022/01/02 06:57:46;;;;;;;6.83;5.10;;;3.60;99.90;;;;;;5015247;28;20026;-80
2022/01/02 07:00:12;;;;;;;8.77;6.10;;;3.50;99.90;;;;;;5015363;28;20435;-80
2022/01/02 07:02:38;;;;;;;9.77;7.63;;;3.50;99.90;;;;;;5015308;28;20061;-79
2022/01/02 07:05:04;;;;;;;10.13;7.35;;;3.50;99.90;;;;;;4997647;28;20125;-80
2022/01/02 07:07:30;;;;;;;11.23;7.88;;;3.40;99.90;;;;;;5015359;28;20033;-81
2022/01/02 07:09:56;;;;;;;12.53;9.23;;;3.30;99.90;;;;;;5034846;28;20064;-80
2022/01/02 07:12:23;;;;;;;12.30;9.27;;;3.20;99.90;;;;;;5034682;28;20100;-81
2022/01/02 07:14:50;;;;;;;15.80;11.43;;;3.10;99.90;;;;;;5017667;28;20059;-80
2022/01/02 07:17:15;;;;;;;16.63;12.40;;;3.20;99.90;;;;;;5016924;28;20112;-81
2022/01/02 07:19:41;;;;;;;19.17;13.20;;;3.20;99.90;;;;;;5034764;28;20096;-80
2022/01/02 07:22:10;;;;;;;21.27;13.80;;;3.20;99.90;;;;;;5016763;28;20017;-80
2022/01/02 07:24:36;;;;;;;7.57;6.60;;;3.20;99.90;;;;;;5034478;28;20101;-76
2022/01/02 07:27:01;;;;;;;8.13;6.03;;;3.50;99.90;;;;;;5018031;28;20132;-77
2022/01/02 07:29:27;;;;;;;14.17;9.73;;;4.70;99.90;;;;;;5034420;28;20566;-78
2022/01/02 07:31:53;;;;;;;18.02;12.93;;;5.20;99.90;;;;;;5034309;28;20052;-80
2022/01/02 07:34:19;;;;;;;19.33;12.93;;;4.80;99.90;;;;;;5034249;28;20045;-80
2022/01/02 07:36:44;;;;;;;21.30;13.82;;;4.40;99.90;;;;;;5034014;28;20033;-80
2022/01/02 07:39:15;;;;;;;18.85;12.25;;;4.20;99.90;;;;;;5034078;28;20652;-80
2022/01/02 07:41:41;;;;;;;15.10;10.88;;;4.10;99.90;;;;;;5034361;28;20427;-81
2022/01/02 07:44:07;;;;;;;12.77;8.93;;;3.90;99.90;;;;;;5033808;28;20036;-80
2022/01/02 07:46:33;;;;;;;13.50;9.40;;;3.70;99.90;;;;;;5017949;28;20052;-80
2022/01/02 07:49:00;;;;;;;11.03;7.93;;;3.70;99.90;;;;;;5033828;28;20028;-80
2022/01/02 07:51:26;;;;;;;9.53;6.50;;;3.70;99.90;;;;;;5016022;28;20502;-80
2022/01/02 07:53:52;;;;;;;14.43;9.27;;;3.70;99.90;;;;;;5020746;28;20030;-80
2022/01/02 07:56:17;;;;;;;18.73;11.17;;;3.60;99.90;;;;;;5032176;28;20040;-81
2022/01/02 07:58:43;;;;;;;25.87;13.20;;;3.70;99.90;;;;;;5033291;28;20025;-80
2022/01/02 08:01:12;;;;;;;37.87;17.03;;;3.70;99.90;;;;;;5033279;28;20670;-80
2022/01/02 08:03:38;;;;;;;46.43;19.67;;;3.80;99.90;;;;;;5015732;28;20025;-80
2022/01/02 08:06:03;;;;;;;58.20;21.20;;;3.80;99.90;;;;;;5033487;28;20556;-80
2022/01/02 08:08:29;;;;;;;49.28;21.38;;;3.90;99.90;;;;;;5033503;28;20047;-80
2022/01/02 08:10:55;;;;;;;38.47;17.27;;;4.10;99.90;;;;;;5033845;28;20056;-81
2022/01/02 08:13:20;;;;;;;23.55;14.10;;;4.20;99.90;;;;;;5032345;28;20088;-80
2022/01/02 08:15:49;;;;;;;22.57;14.03;;;4.20;99.90;;;;;;5033631;28;20026;-80
2022/01/02 08:18:15;;;;;;;17.25;11.65;;;4.10;99.90;;;;;;5032379;28;20030;-80
2022/01/02 08:20:41;;;;;;;20.50;12.97;;;4.20;99.90;;;;;;5033501;28;20105;-80
2022/01/02 08:23:07;;;;;;;22.03;14.40;;;4.10;99.90;;;;;;5032170;28;20049;-81
2022/01/02 08:25:33;;;;;;;24.98;14.02;;;4.10;99.90;;;;;;5033530;28;20082;-80
2022/01/02 08:27:59;;;;;;;23.75;15.60;;;4.20;99.90;;;;;;5033320;28;20135;-80
2022/01/02 08:30:24;;;;;;;26.80;17.35;;;4.10;99.90;;;;;;5033075;28;20029;-80
2022/01/02 08:32:50;;;;;;;29.17;18.40;;;4.10;99.90;;;;;;5032850;28;20037;-80
2022/01/02 08:35:16;;;;;;;25.88;17.13;;;4.10;99.90;;;;;;5032065;28;20029;-80
2022/01/02 08:37:42;;;;;;;28.35;17.50;;;4.10;99.90;;;;;;5032874;28;20026;-80
2022/01/02 08:40:08;;;;;;;30.65;18.02;;;4.10;99.90;;;;;;5025487;28;20033;-80
2022/01/02 08:42:34;;;;;;;30.48;17.83;;;4.10;99.90;;;;;;5031358;28;20030;-80
2022/01/02 08:45:00;;;;;;;29.05;17.90;;;4.20;99.90;;;;;;5032940;28;20091;-80
2022/01/02 08:47:26;;;;;;;33.22;19.42;;;4.20;99.90;;;;;;5033290;28;20108;-80
2022/01/02 08:49:51;;;;;;;27.42;16.75;;;4.10;99.90;;;;;;5033116;28;20061;-80
2022/01/02 08:52:18;;;;;;;24.42;16.85;;;4.20;99.90;;;;;;5033231;28;20081;-80
2022/01/02 08:54:44;;;;;;;26.52;17.60;;;4.20;99.90;;;;;;5032853;28;20087;-79
2022/01/02 08:57:10;;;;;;;25.30;16.55;;;4.20;99.90;;;;;;5032905;28;20033;-80
2022/01/02 08:59:36;;;;;;;23.58;15.57;;;4.30;99.90;;;;;;5033018;28;20029;-79
2022/01/02 09:02:02;;;;;;;23.90;15.18;;;4.30;99.90;;;;;;5032968;28;20104;-80
2022/01/02 09:04:28;;;;;;;21.95;14.45;;;4.40;99.90;;;;;;5032949;28;20017;-80
2022/01/02 09:06:53;;;;;;;24.23;15.70;;;4.40;99.90;;;;;;5032775;28;20484;-80
2022/01/02 09:09:19;;;;;;;25.10;15.93;;;4.50;99.90;;;;;;5032887;28;20030;-80
2022/01/02 09:11:46;;;;;;;27.30;17.05;;;4.60;99.90;;;;;;5031094;28;20029;-80
2022/01/02 09:14:12;;;;;;;23.30;16.13;;;4.70;99.90;;;;;;5032848;28;20057;-80
2022/01/02 09:16:39;;;;;;;27.98;17.85;;;4.70;99.90;;;;;;5032722;28;20118;-80
2022/01/02 09:19:06;;;;;;;31.95;20.48;;;4.70;99.90;;;;;;5032772;28;20033;-80
2022/01/02 09:21:32;;;;;;;38.13;24.95;;;4.70;99.90;;;;;;5032904;28;20025;-79
2022/01/02 09:23:58;;;;;;;41.38;25.33;;;4.70;99.90;;;;;;5032564;28;20029;-80
2022/01/02 09:26:23;;;;;;;39.33;25.13;;;4.60;99.90;;;;;;5030973;28;20037;-72
2022/01/02 09:28:49;;;;;;;37.72;24.40;;;4.60;99.90;;;;;;5031821;28;20039;-72
2022/01/02 09:31:15;;;;;;;43.60;26.52;;;4.70;99.90;;;;;;5031673;28;20041;-72
2022/01/02 09:33:41;;;;;;;43.13;28.10;;;4.70;99.90;;;;;;5031291;28;20039;-72
2022/01/02 09:36:06;;;;;;;46.30;28.38;;;4.70;99.90;;;;;;5030303;28;20025;-72
2022/01/02 09:38:32;;;;;;;42.28;26.58;;;4.70;99.90;;;;;;5031003;28;20021;-72
2022/01/02 09:41:01;;;;;;;41.17;27.25;;;4.80;99.90;;;;;;5030448;28;20079;-72
2022/01/02 09:43:27;;;;;;;38.42;25.95;;;4.80;99.90;;;;;;5013039;28;20075;-72
2022/01/02 09:45:54;;;;;;;42.63;27.42;;;4.90;99.90;;;;;;5013185;28;20406;-72
2022/01/02 09:48:19;;;;;;;41.08;27.13;;;4.90;99.90;;;;;;5030966;28;20029;-71
2022/01/02 09:50:47;;;;;;;45.60;27.20;;;5.00;99.90;;;;;;5032038;28;20071;-72
2022/01/02 09:53:13;;;;;;;40.97;27.60;;;5.20;99.90;;;;;;5014320;28;20021;-71
2022/01/02 09:55:39;;;;;;;38.97;27.55;;;5.20;99.90;;;;;;5032081;28;20017;-72
2022/01/02 09:58:10;;;;;;;40.88;27.45;;;5.30;99.90;;;;;;5032270;28;20056;-72
2022/01/02 10:00:37;;;;;;;44.70;28.20;;;5.30;99.90;;;;;;5014258;28;20066;-72
2022/01/02 10:03:05;;;;;;;47.53;28.90;;;5.40;99.90;;;;;;5032072;28;20029;-72
2022/01/02 10:05:54;;;;;;;41.58;28.58;;;5.40;99.90;;;;;;5014303;28;20136;-72
2022/01/02 10:08:34;;;;;;;39.08;26.90;;;5.50;99.90;;;;;;5032265;28;20465;-72
2022/01/02 10:11:16;;;;;;;41.63;27.17;;;5.50;99.90;;;;;;5032002;28;20025;-72
2022/01/02 10:13:44;;;;;;;;;;;5.50;99.90;;;;;;5032283;28;20104;-72
2022/01/02 10:16:34;;;;;;;41.33;26.10;;;5.60;99.90;;;;;;5031906;28;19909;-72
2022/01/02 10:19:18;;;;;;;33.15;24.75;;;5.60;99.90;;;;;;5032011;28;20017;-72
2022/01/02 10:21:53;;;;;;;36.63;26.30;;;5.50;99.90;;;;;;5014337;28;20029;-72
2022/01/02 10:24:21;;;;;;;42.13;26.83;;;5.60;99.90;;;;;;5033188;28;20021;-72
2022/01/02 10:27:11;;;;;;;42.15;25.75;;;5.60;99.90;;;;;;5035432;28;20403;-72
2022/01/02 10:29:55;;;;;;;34.70;24.13;;;5.60;99.90;;;;;;5035422;28;20029;-72
2022/01/02 10:32:41;;;;;;;36.70;25.05;;;5.60;99.90;;;;;;5017522;28;20387;-72
2022/01/02 10:35:14;;;;;;;37.20;25.77;;;5.60;99.90;;;;;;5035071;28;20020;-72
2022/01/02 10:37:42;;;;;;;43.20;26.02;;;5.60;99.90;;;;;;5035091;28;20029;-72
2022/01/02 10:40:26;;;;;;;34.75;24.10;;;5.70;99.90;;;;;;5035015;28;20487;-72
2022/01/02 10:42:53;;;;;;;38.67;27.23;;;5.70;99.90;;;;;;5017287;28;20064;-72
2022/01/02 10:45:43;;;;;;;35.20;24.98;;;5.70;99.90;;;;;;5035184;28;20025;-72
2022/01/02 10:48:14;;;;;;;33.92;24.45;;;5.80;99.90;;;;;;5034993;28;20031;-72
2022/01/02 10:50:57;;;;;;;33.60;24.77;;;5.80;99.90;;;;;;5017119;28;20032;-72
2022/01/02 10:53:23;;;;;;;34.83;25.60;;;5.90;99.90;;;;;;5034781;28;20016;-72
2022/01/02 10:55:49;;;;;;;35.60;25.55;;;5.90;99.90;;;;;;5017023;28;20033;-72
2022/01/02 10:58:15;;;;;;;32.47;25.10;;;6.00;99.90;;;;;;5034785;28;20024;-72
2022/01/02 11:00:42;;;;;;;34.17;24.52;;;6.10;99.90;;;;;;5017128;28;20490;-72
2022/01/02 11:03:08;;;;;;;36.20;26.75;;;6.20;99.90;;;;;;5034552;28;20048;-72
2022/01/02 11:05:36;;;;;;;35.67;25.25;;;6.30;99.90;;;;;;5016864;28;20459;-72
2022/01/02 11:08:04;;;;;;;34.70;25.63;;;6.30;99.90;;;;;;5017033;28;20029;-72
2022/01/02 11:10:35;;;;;;;36.50;26.27;;;6.40;99.90;;;;;;5034686;28;20025;-72
2022/01/02 11:13:04;;;;;;;36.73;26.13;;;6.60;99.90;;;;;;5034649;28;20486;-72
2022/01/02 11:15:30;;;;;;;36.67;26.67;;;6.60;99.90;;;;;;5034448;28;20021;-72
2022/01/02 11:17:57;;;;;;;34.83;25.55;;;6.60;99.90;;;;;;5016602;28;20040;-72
2022/01/02 11:20:24;;;;;;;42.08;26.60;;;6.70;99.90;;;;;;5016559;28;20022;-72
2022/01/02 11:23:03;;;;;;;35.08;25.65;;;6.70;99.90;;;;;;5034061;28;20026;-72
2022/01/02 11:25:46;;;;;;;38.17;25.83;;;6.70;99.90;;;;;;5034023;28;20021;-79
2022/01/02 11:28:41;;;;;;;38.42;24.10;;;6.70;99.90;;;;;;5033996;28;20053;-79
2022/01/02 11:31:09;;;;;;;36.80;25.90;;;6.70;99.90;;;;;;5034283;28;20100;-80
2022/01/02 11:33:42;;;;;;;36.45;25.65;;;6.60;99.90;;;;;;5034390;28;20113;-79
2022/01/02 11:36:28;;;;;;;39.40;25.88;;;6.60;99.90;;;;;;5034067;28;20080;-79
2022/01/02 11:39:09;;;;;;;35.92;26.02;;;6.60;99.90;;;;;;5033752;28;20034;-79
2022/01/02 11:41:40;;;;;;;38.45;25.52;;;6.50;99.90;;;;;;5033602;28;20096;-79
2022/01/02 11:44:13;;;;;;;39.30;26.63;;;6.50;99.90;;;;;;5013910;28;20046;-79
2022/01/02 11:46:45;;;;;;;35.20;25.58;;;6.50;99.90;;;;;;5013911;28;20052;-79
2022/01/02 11:49:24;;;;;;;37.67;26.10;;;6.30;99.90;;;;;;5022778;28;20063;-79
2022/01/02 11:52:08;;;;;;;39.28;26.17;;;6.30;99.90;;;;;;5023389;28;20032;-79
2022/01/02 11:54:47;;;;;;;34.05;25.77;;;6.20;99.90;;;;;;5030729;28;20017;-72
2022/01/02 11:57:15;;;;;;;43.05;27.70;;;6.20;99.90;;;;;;5018559;28;20439;-72
2022/01/02 11:59:45;;;;;;;39.17;28.20;;;6.10;99.90;;;;;;5033111;28;20025;-72
2022/01/02 12:02:26;;;;;;;39.03;26.33;;;6.10;99.90;;;;;;5030502;28;20049;-72
2022/01/02 12:05:02;;;;;;;41.22;27.40;;;6.10;99.90;;;;;;5030266;28;20028;-72
2022/01/02 12:07:37;;;;;;;40.85;28.17;;;6.10;99.90;;;;;;5022048;28;20022;-72
2022/01/02 12:12:59;;;;;;;39.35;27.60;;;6.20;99.90;;;;;;5033392;28;20045;-72
2022/01/02 12:18:31;;;;;;;40.55;26.95;;;6.20;99.90;;;;;;5033339;28;20044;-72
2022/01/02 12:20:57;;;;;;;38.22;27.40;;;6.20;99.90;;;;;;5032140;28;20029;-72
2022/01/02 12:25:58;;;;;;;41.17;27.38;;;6.10;99.90;;;;;;5033319;28;20051;-72
2022/01/02 12:28:24;;;;;;;44.50;28.60;;;6.10;99.90;;;;;;5033036;28;20183;-72
2022/01/02 12:30:52;;;;;;;44.38;28.17;;;6.10;99.90;;;;;;5033307;28;20112;-72
2022/01/02 12:33:28;;;;;;;43.25;28.45;;;6.00;99.90;;;;;;5032941;28;20028;-72
2022/01/02 12:35:54;;;;;;;41.63;28.42;;;6.00;99.90;;;;;;5029860;28;20495;-72
2022/01/02 12:38:20;;;;;;;38.92;26.67;;;6.00;99.90;;;;;;5015164;28;20026;-72
2022/01/02 12:40:49;;;;;;;45.92;29.08;;;6.00;99.90;;;;;;5033126;28;20033;-72
2022/01/02 12:43:22;;;;;;;43.05;28.70;;;6.00;99.90;;;;;;5032880;28;20022;-72
2022/01/02 12:45:53;;;;;;;40.92;28.38;;;6.00;99.90;;;;;;5015124;28;20136;-72
2022/01/02 12:48:35;;;;;;;39.30;27.65;;;6.00;99.90;;;;;;5032397;28;20112;-72
2022/01/02 12:51:11;;;;;;;44.95;30.58;;;6.10;99.90;;;;;;5032901;28;20034;-72
2022/01/02 12:53:37;;;;;;;40.55;27.08;;;6.10;99.90;;;;;;5032614;28;20383;-72
2022/01/02 12:56:03;;;;;;;41.03;28.42;;;6.10;99.90;;;;;;5032652;28;20030;-72
2022/01/02 12:58:31;;;;;;;46.53;29.75;;;6.20;99.90;;;;;;5031883;28;20556;-72
2022/01/02 13:01:06;;;;;;;40.50;29.10;;;6.20;99.90;;;;;;5031450;28;20024;-72
2022/01/02 13:03:31;;;;;;;43.85;30.25;;;6.20;99.90;;;;;;5031163;28;20017;-72
2022/01/02 13:05:58;;;;;;;47.47;29.88;;;6.30;99.90;;;;;;5013425;28;20422;-72
2022/01/02 13:08:27;;;;;;;49.78;31.73;;;6.40;99.90;;;;;;5031150;28;20018;-72